CheckWX is a tool to help pilots better visualize weather data.  It is not intended as a substitute for an official pre-flight weather briefing.

03:40:11 UTC

EGPO TAF
Stornoway Airport
Stornoway, United Kingdom
TAF EGPO 011957Z 0121/0206 04008KT 9999 FEW003 TEMPO 0121/0206 3000 BR RADZ BKN003 PROB40 TEMPO 0121/0206 0300 FG BKN001

Jun-1@
21:00 UTC

Jun-1 @ 21:00 UTC

Jun-2@
06:00 UTC

Jun-2 @ 06:00 UTC

TAF EGPO 011957Z 0121/0206 04008KT 9999 FEW003
Wind
  • 040° at 8 KTS
Cloud Levels
  • Few at 300' AGL

Jun-1@
21:00 UTC

Jun-1 @ 21:00 UTC

Jun-2@
06:00 UTC

Jun-2 @ 06:00 UTC

TEMPO 0121/0206 3000 BR RADZ BKN003

Temporary

Temporary Changes expected for less than half the time period

Conditions
Mist, Rain, Drizzle
Cloud Levels
  • Broken at 300' AGL

Jun-1@
21:00 UTC

Jun-1 @ 21:00 UTC

Jun-2@
06:00 UTC

Jun-2 @ 06:00 UTC

PROB40 TEMPO 0121/0206 0300 FG BKN001

Temporary - 40% Likelihood

Temporary - 40% Likelihood during this time.

Conditions
Fog
Cloud Levels
  • Broken at 100' AGL